createdAt,value
2022-07-26T00:05:29.301Z,21.97
2022-07-26T00:09:32.408Z,21.95
2022-07-26T00:13:35.293Z,21.91
2022-07-26T00:17:43.756Z,21.84
2022-07-26T00:23:22.005Z,21.73
2022-07-26T00:27:10.214Z,21.63
2022-07-26T00:31:34.221Z,21.53
2022-07-26T00:35:43.340Z,21.42
2022-07-26T00:39:45.282Z,21.27
2022-07-26T00:44:05.647Z,21.14
2022-07-26T00:48:09.015Z,21.06
2022-07-26T00:52:19.745Z,20.97
2022-07-26T00:56:26.537Z,20.91
2022-07-26T01:01:12.750Z,20.84
2022-07-26T01:27:15.268Z,20.58
2022-07-26T01:31:23.490Z,20.52
2022-07-26T01:35:34.524Z,20.44
2022-07-26T01:39:42.164Z,20.35
2022-07-26T01:43:46.762Z,20.30
2022-07-26T01:47:50.422Z,20.23
2022-07-26T01:51:52.121Z,20.19
2022-07-26T01:55:54.046Z,20.11
2022-07-26T01:59:56.803Z,20.03
2022-07-26T02:03:58.519Z,19.95
2022-07-26T02:08:02.908Z,19.94
2022-07-26T02:12:07.616Z,19.89
2022-07-26T02:16:13.581Z,19.86
2022-07-26T02:20:17.206Z,19.83
2022-07-26T06:42:09.016Z,20.36
2022-07-26T06:46:11.259Z,20.46
2022-07-26T06:50:12.922Z,20.52
2022-07-26T06:54:16.675Z,20.62
2022-07-26T06:58:18.261Z,20.64
2022-07-26T07:02:20.621Z,20.77
2022-07-26T07:06:22.755Z,21.00
2022-07-26T07:10:24.507Z,21.20
2022-07-26T07:14:27.024Z,21.35
2022-07-26T07:18:30.422Z,21.49
2022-07-26T07:22:32.598Z,21.73
2022-07-26T07:26:35.561Z,21.94
2022-07-26T07:30:38.646Z,22.11
2022-07-26T07:34:49.786Z,22.07
2022-07-26T07:39:05.954Z,22.10
2022-07-26T07:43:08.219Z,22.15
2022-07-26T07:47:10.294Z,21.92
2022-07-26T07:51:14.241Z,21.88
2022-07-26T07:55:36.786Z,22.02
2022-07-26T07:59:42.854Z,22.11
2022-07-26T08:03:52.054Z,22.28
2022-07-26T08:08:05.505Z,22.79
2022-07-26T08:12:11.167Z,23.25
2022-07-26T08:16:13.813Z,23.54
2022-07-26T08:20:16.204Z,23.22
2022-07-26T08:24:17.816Z,23.04
2022-07-26T08:28:38.143Z,23.46
2022-07-26T08:32:42.712Z,23.47
2022-07-26T08:37:14.137Z,23.98
2022-07-26T08:41:08.480Z,23.93
2022-07-26T08:45:11.665Z,24.13
2022-07-26T08:49:15.244Z,24.33
2022-07-26T08:53:19.629Z,24.44
2022-07-26T08:57:22.646Z,25.13
2022-07-26T09:01:24.705Z,25.05
2022-07-26T09:05:37.133Z,24.81
2022-07-26T09:09:58.342Z,25.41
2022-07-26T09:14:02.627Z,25.44
2022-07-26T09:18:04.682Z,25.34
2022-07-26T09:22:12.424Z,25.30
2022-07-26T09:26:20.343Z,25.52
2022-07-26T09:30:22.645Z,26.01
2022-07-26T09:34:26.372Z,25.86
2022-07-26T09:38:45.942Z,26.03
2022-07-26T09:43:00.069Z,26.34
2022-07-26T09:47:01.811Z,26.30
2022-07-26T09:51:03.582Z,26.01
2022-07-26T09:55:08.532Z,25.79
2022-07-26T09:59:10.479Z,26.05
2022-07-26T10:03:12.736Z,27.02
2022-07-26T10:07:17.120Z,27.28
2022-07-26T10:11:21.158Z,27.47
2022-07-26T10:15:36.343Z,27.30
2022-07-26T10:19:41.682Z,26.50
2022-07-26T10:23:59.044Z,26.00
2022-07-26T10:28:01.878Z,26.17
2022-07-26T10:32:16.099Z,26.65
2022-07-26T10:36:25.413Z,27.51
2022-07-26T10:40:32.476Z,27.98
2022-07-26T10:44:43.962Z,27.58
2022-07-26T10:49:07.740Z,27.06
2022-07-26T10:53:16.632Z,26.52
2022-07-26T10:57:19.315Z,26.12
2022-07-26T11:01:21.473Z,25.82
2022-07-26T11:05:35.037Z,26.02
2022-07-26T11:09:55.011Z,26.13
2022-07-26T11:14:12.962Z,26.07
2022-07-26T11:18:28.310Z,25.94
2022-07-26T11:22:36.002Z,25.90
2022-07-26T11:26:44.097Z,25.88
2022-07-26T11:31:03.642Z,26.25
2022-07-26T11:35:06.785Z,27.45
2022-07-26T11:39:14.205Z,28.69
2022-07-26T11:47:34.936Z,30.04
2022-07-26T11:51:37.167Z,29.20
2022-07-26T11:55:40.844Z,28.51
2022-07-26T11:59:48.845Z,27.71
2022-07-26T12:03:58.632Z,28.64
2022-07-26T12:08:07.310Z,29.45
2022-07-26T12:12:19.708Z,29.21
2022-07-26T12:16:37.092Z,28.57
2022-07-26T12:21:04.430Z,27.80
2022-07-26T12:25:08.320Z,27.32
2022-07-26T12:29:25.066Z,27.12
2022-07-26T12:33:27.001Z,27.11
2022-07-26T12:37:39.453Z,27.02
2022-07-26T12:41:41.974Z,26.87
2022-07-26T12:45:44.732Z,26.72
2022-07-26T12:49:48.951Z,26.77
2022-07-26T12:53:50.672Z,26.72
2022-07-26T12:57:55.771Z,26.69
2022-07-26T13:01:59.747Z,26.58
2022-07-26T13:14:55.187Z,28.32
2022-07-26T13:19:17.507Z,29.05
2022-07-26T13:23:22.104Z,28.60
2022-07-26T13:27:35.938Z,28.33
2022-07-26T13:31:39.296Z,27.97
2022-07-26T13:35:42.680Z,27.69
2022-07-26T13:39:44.492Z,27.48
2022-07-26T13:43:46.090Z,27.26
2022-07-26T13:47:48.795Z,27.13
2022-07-26T13:51:59.879Z,27.26
2022-07-26T13:56:03.146Z,28.62
2022-07-26T14:00:05.832Z,28.71
2022-07-26T14:04:09.880Z,28.32
2022-07-26T14:08:12.170Z,27.94
2022-07-26T14:12:26.624Z,27.42
2022-07-26T14:16:28.360Z,27.00
2022-07-26T14:20:30.031Z,26.95
2022-07-26T14:24:32.802Z,27.03
2022-07-26T14:28:35.994Z,27.30
2022-07-26T14:32:40.046Z,27.36
2022-07-26T14:36:43.006Z,28.13
2022-07-26T14:40:44.638Z,28.17
2022-07-26T14:44:46.725Z,28.16
2022-07-26T14:48:54.561Z,28.39
2022-07-26T14:52:56.739Z,29.83
2022-07-26T14:56:58.506Z,29.78
2022-07-26T15:01:00.686Z,29.37
2022-07-26T15:05:02.776Z,29.12
2022-07-26T15:09:05.379Z,28.82
2022-07-26T15:13:07.665Z,29.51
2022-07-26T15:17:10.871Z,30.50
2022-07-26T15:21:15.051Z,30.93
2022-07-26T15:25:17.738Z,30.91
2022-07-26T15:29:19.414Z,30.19
2022-07-26T15:33:21.365Z,29.83
2022-07-26T15:37:23.456Z,29.63
2022-07-26T15:41:26.309Z,29.49
2022-07-26T15:45:28.155Z,29.45
2022-07-26T15:49:31.893Z,29.38
2022-07-26T15:53:35.659Z,29.45
2022-07-26T15:57:38.437Z,29.33
2022-07-26T16:01:41.377Z,29.04
2022-07-26T16:05:43.090Z,28.79
2022-07-26T16:09:44.785Z,28.49
2022-07-26T16:13:46.390Z,28.36
2022-07-26T16:17:48.045Z,28.49
2022-07-26T16:21:49.829Z,28.40
2022-07-26T16:25:53.367Z,28.44
2022-07-26T16:29:55.536Z,28.37
2022-07-26T16:33:58.522Z,28.33
2022-07-26T16:38:01.222Z,28.38
2022-07-26T16:42:06.805Z,28.61
2022-07-26T16:46:09.030Z,28.74
2022-07-26T16:50:13.256Z,28.71
2022-07-26T16:54:26.955Z,28.53
2022-07-26T16:58:28.594Z,28.55
2022-07-26T17:02:31.188Z,28.47
2022-07-26T17:06:32.851Z,28.32
2022-07-26T17:10:36.015Z,28.18
2022-07-26T17:14:37.720Z,28.00
2022-07-26T17:18:39.383Z,27.85
2022-07-26T17:22:41.332Z,27.60
2022-07-26T17:26:43.269Z,27.43
2022-07-26T17:30:47.956Z,27.27
2022-07-26T17:34:49.710Z,27.30
2022-07-26T17:38:52.621Z,27.18
2022-07-26T17:42:56.437Z,26.93
2022-07-26T17:46:59.811Z,26.78
2022-07-26T17:51:01.708Z,26.53
2022-07-26T17:55:09.019Z,26.26
2022-07-26T17:59:13.505Z,26.18
2022-07-26T18:03:15.706Z,26.06
2022-07-26T18:07:19.724Z,25.92
2022-07-26T18:11:21.343Z,25.84
2022-07-26T18:15:23.788Z,25.77
2022-07-26T18:19:26.994Z,25.67
2022-07-26T18:23:28.695Z,25.59
2022-07-26T18:27:31.857Z,25.48
2022-07-26T18:31:34.535Z,25.36
2022-07-26T18:35:37.854Z,25.19
2022-07-26T18:39:57.990Z,25.07
2022-07-26T18:44:00.002Z,24.99
2022-07-26T18:48:01.645Z,24.83
2022-07-26T18:52:08.690Z,24.69
2022-07-26T18:56:14.926Z,24.53
2022-07-26T19:00:19.127Z,24.46
2022-07-26T19:04:21.940Z,24.33
2022-07-26T19:12:44.090Z,24.18
2022-07-26T19:16:46.553Z,24.11
2022-07-26T19:20:50.383Z,24.01
2022-07-26T19:24:52.555Z,23.92
2022-07-26T19:28:57.766Z,23.83
2022-07-26T19:32:59.730Z,23.72
2022-07-26T19:37:02.196Z,23.64
2022-07-26T19:41:04.442Z,23.58
2022-07-26T19:45:06.542Z,23.53
2022-07-26T19:49:14.848Z,23.47
2022-07-26T20:14:21.859Z,22.84
2022-07-26T20:23:09.140Z,22.56
2022-07-26T20:27:26.845Z,22.42
2022-07-26T20:31:28.592Z,22.30
2022-07-26T20:35:31.861Z,22.24
2022-07-26T20:39:36.955Z,22.18
2022-07-26T20:43:40.501Z,22.12
2022-07-26T20:47:43.812Z,22.07
2022-07-26T20:51:45.555Z,21.99
2022-07-26T20:55:48.317Z,21.94
2022-07-26T20:59:50.075Z,21.87
2022-07-26T21:03:51.878Z,21.83
2022-07-26T21:07:59.075Z,21.77
2022-07-26T21:12:01.770Z,21.77
2022-07-26T21:16:04.218Z,21.73
2022-07-26T21:20:14.167Z,21.74
2022-07-26T21:24:16.606Z,21.74
2022-07-26T21:28:23.960Z,21.75
2022-07-26T21:32:52.065Z,21.73
2022-07-26T21:36:59.053Z,21.71
2022-07-26T21:41:00.965Z,21.68
2022-07-26T21:45:03.012Z,21.59
2022-07-26T21:49:07.419Z,21.51
2022-07-26T21:53:09.243Z,21.50
2022-07-26T21:57:11.088Z,21.50
2022-07-26T22:01:12.945Z,21.55
2022-07-26T22:05:33.397Z,21.56
2022-07-26T22:09:35.141Z,21.61
2022-07-26T22:13:56.669Z,21.63
2022-07-26T22:18:16.201Z,21.63
2022-07-26T22:22:48.784Z,21.69
2022-07-26T22:27:28.133Z,21.66
2022-07-26T22:31:52.789Z,21.63
2022-07-26T22:36:14.151Z,21.56
2022-07-26T22:41:26.700Z,21.48
2022-07-26T22:46:03.446Z,21.39
2022-07-26T22:50:13.199Z,21.26
2022-07-26T22:58:51.427Z,21.01
2022-07-26T23:07:30.686Z,20.76
2022-07-26T23:11:38.134Z,20.67
2022-07-26T23:15:41.502Z,20.64
2022-07-26T23:19:50.169Z,20.55
2022-07-26T23:24:11.896Z,20.44
2022-07-26T23:28:35.984Z,20.33
2022-07-26T23:32:38.119Z,20.19
2022-07-26T23:36:39.848Z,20.10
